sensor_id;sensor_type;location;lat;lon;timestamp;pressure;altitude;pressure_sealevel;temperature;humidity
11038;BME280;5572;49.540;11.932;2023-03-25T00:00:25;95729.19;;;8.63;100.00
11038;BME280;5572;49.540;11.932;2023-03-25T00:02:52;95736.09;;;8.69;100.00
11038;BME280;5572;49.540;11.932;2023-03-25T00:05:20;95740.00;;;8.77;100.00
11038;BME280;5572;49.540;11.932;2023-03-25T00:07:49;95739.88;;;8.82;100.00
11038;BME280;5572;49.540;11.932;2023-03-25T00:10:17;95753.38;;;8.95;100.00
11038;BME280;5572;49.540;11.932;2023-03-25T00:12:44;95763.97;;;9.05;100.00
11038;BME280;5572;49.540;11.932;2023-03-25T00:15:11;95788.41;;;9.09;100.00
11038;BME280;5572;49.540;11.932;2023-03-25T00:17:39;95792.13;;;9.13;100.00
11038;BME280;5572;49.540;11.932;2023-03-25T00:20:08;95800.31;;;9.21;100.00
11038;BME280;5572;49.540;11.932;2023-03-25T00:22:34;95797.13;;;9.33;100.00
11038;BME280;5572;49.540;11.932;2023-03-25T00:25:06;95793.03;;;9.35;100.00
11038;BME280;5572;49.540;11.932;2023-03-25T00:27:33;95782.84;;;9.32;100.00
11038;BME280;5572;49.540;11.932;2023-03-25T00:29:59;95778.94;;;9.38;100.00
11038;BME280;5572;49.540;11.932;2023-03-25T00:32:26;95766.56;;;9.37;100.00
11038;BME280;5572;49.540;11.932;2023-03-25T00:34:55;95778.44;;;9.36;100.00
11038;BME280;5572;49.540;11.932;2023-03-25T00:37:21;95778.06;;;9.29;100.00
11038;BME280;5572;49.540;11.932;2023-03-25T00:39:49;95781.84;;;9.28;100.00
11038;BME280;5572;49.540;11.932;2023-03-25T00:42:16;95777.16;;;9.34;100.00
11038;BME280;5572;49.540;11.932;2023-03-25T00:44:50;95775.94;;;9.26;100.00
11038;BME280;5572;49.540;11.932;2023-03-25T00:47:17;95778.06;;;9.29;100.00
11038;BME280;5572;49.540;11.932;2023-03-25T00:49:46;95802.72;;;9.23;100.00
11038;BME280;5572;49.540;11.932;2023-03-25T00:52:14;95778.34;;;9.41;100.00
11038;BME280;5572;49.540;11.932;2023-03-25T00:54:41;95761.16;;;9.24;100.00
11038;BME280;5572;49.540;11.932;2023-03-25T00:57:10;95744.00;;;9.06;100.00
11038;BME280;5572;49.540;11.932;2023-03-25T00:59:36;95726.72;;;8.94;100.00
11038;BME280;5572;49.540;11.932;2023-03-25T01:02:03;95725.72;;;8.90;100.00
11038;BME280;5572;49.540;11.932;2023-03-25T01:04:31;95737.31;;;8.90;100.00
11038;BME280;5572;49.540;11.932;2023-03-25T01:06:57;95739.56;;;8.83;100.00
11038;BME280;5572;49.540;11.932;2023-03-25T01:09:27;95736.47;;;8.76;100.00
11038;BME280;5572;49.540;11.932;2023-03-25T01:11:53;95733.97;;;8.66;100.00
11038;BME280;5572;49.540;11.932;2023-03-25T01:14:21;95738.84;;;8.51;100.00
11038;BME280;5572;49.540;11.932;2023-03-25T01:16:52;95736.69;;;8.35;100.00
11038;BME280;5572;49.540;11.932;2023-03-25T01:19:18;95733.91;;;8.26;100.00
11038;BME280;5572;49.540;11.932;2023-03-25T01:21:45;95746.53;;;8.26;100.00
11038;BME280;5572;49.540;11.932;2023-03-25T01:24:14;95750.84;;;8.08;100.00
11038;BME280;5572;49.540;11.932;2023-03-25T01:26:42;95758.34;;;7.93;100.00
11038;BME280;5572;49.540;11.932;2023-03-25T01:29:10;95775.06;;;7.90;100.00
11038;BME280;5572;49.540;11.932;2023-03-25T01:31:37;95918.41;;;7.95;100.00
11038;BME280;5572;49.540;11.932;2023-03-25T01:34:04;95939.06;;;8.00;100.00
11038;BME280;5572;49.540;11.932;2023-03-25T01:36:31;95971.75;;;8.12;100.00
11038;BME280;5572;49.540;11.932;2023-03-25T01:38:58;95997.03;;;8.16;100.00
11038;BME280;5572;49.540;11.932;2023-03-25T01:41:26;96040.06;;;8.21;100.00
11038;BME280;5572;49.540;11.932;2023-03-25T01:44:05;96070.63;;;8.30;100.00
11038;BME280;5572;49.540;11.932;2023-03-25T01:46:32;96107.66;;;8.43;100.00
11038;BME280;5572;49.540;11.932;2023-03-25T01:49:01;96131.47;;;8.54;100.00
11038;BME280;5572;49.540;11.932;2023-03-25T01:51:32;96151.66;;;8.56;100.00
11038;BME280;5572;49.540;11.932;2023-03-25T01:54:01;96186.84;;;8.65;100.00
11038;BME280;5572;49.540;11.932;2023-03-25T01:56:32;96194.38;;;8.68;100.00
11038;BME280;5572;49.540;11.932;2023-03-25T01:59:05;96189.25;;;8.66;100.00
11038;BME280;5572;49.540;11.932;2023-03-25T02:01:32;96193.63;;;8.62;100.00
11038;BME280;5572;49.540;11.932;2023-03-25T02:04:01;96185.81;;;8.61;100.00
11038;BME280;5572;49.540;11.932;2023-03-25T02:06:37;96170.78;;;8.55;100.00
11038;BME280;5572;49.540;11.932;2023-03-25T02:09:06;96167.06;;;8.51;100.00
11038;BME280;5572;49.540;11.932;2023-03-25T02:11:36;96151.13;;;8.54;100.00
11038;BME280;5572;49.540;11.932;2023-03-25T02:14:09;96142.06;;;8.46;100.00
11038;BME280;5572;49.540;11.932;2023-03-25T02:16:44;96135.91;;;8.45;100.00
11038;BME280;5572;49.540;11.932;2023-03-25T02:19:45;96137.19;;;8.48;100.00
11038;BME280;5572;49.540;11.932;2023-03-25T02:22:34;96127.28;;;8.43;100.00
11038;BME280;5572;49.540;11.932;2023-03-25T02:28:02;96103.91;;;8.39;100.00
11038;BME280;5572;49.540;11.932;2023-03-25T02:30:59;96092.56;;;8.18;100.00
11038;BME280;5572;49.540;11.932;2023-03-25T02:33:38;96085.28;;;8.14;100.00
11038;BME280;5572;49.540;11.932;2023-03-25T02:39:10;96074.59;;;8.09;100.00
11038;BME280;5572;49.540;11.932;2023-03-25T02:41:42;96086.56;;;8.26;100.00
11038;BME280;5572;49.540;11.932;2023-03-25T02:44:13;96086.91;;;8.15;100.00
11038;BME280;5572;49.540;11.932;2023-03-25T02:46:47;96099.34;;;8.11;100.00
11038;BME280;5572;49.540;11.932;2023-03-25T02:49:19;96096.06;;;8.19;100.00
11038;BME280;5572;49.540;11.932;2023-03-25T02:51:52;96090.88;;;8.27;100.00
11038;BME280;5572;49.540;11.932;2023-03-25T02:54:23;96100.78;;;8.32;100.00
11038;BME280;5572;49.540;11.932;2023-03-25T02:56:53;96088.41;;;8.31;100.00
11038;BME280;5572;49.540;11.932;2023-03-25T02:59:22;96084.41;;;8.28;100.00
11038;BME280;5572;49.540;11.932;2023-03-25T03:01:49;96079.03;;;8.23;100.00
11038;BME280;5572;49.540;11.932;2023-03-25T03:04:15;96073.66;;;8.23;100.00
11038;BME280;5572;49.540;11.932;2023-03-25T03:06:42;96071.72;;;8.29;100.00
11038;BME280;5572;49.540;11.932;2023-03-25T03:09:30;96066.09;;;8.25;100.00
11038;BME280;5572;49.540;11.932;2023-03-25T03:12:11;96067.41;;;8.28;100.00
11038;BME280;5572;49.540;11.932;2023-03-25T03:14:57;96054.66;;;8.38;100.00
11038;BME280;5572;49.540;11.932;2023-03-25T03:17:30;96045.53;;;8.34;100.00
11038;BME280;5572;49.540;11.932;2023-03-25T03:20:08;96027.47;;;8.35;100.00
11038;BME280;5572;49.540;11.932;2023-03-25T03:22:40;96015.91;;;8.34;100.00
11038;BME280;5572;49.540;11.932;2023-03-25T03:25:19;96005.94;;;8.35;100.00
11038;BME280;5572;49.540;11.932;2023-03-25T03:27:54;95995.78;;;8.32;100.00
11038;BME280;5572;49.540;11.932;2023-03-25T03:30:27;95985.56;;;8.29;100.00
11038;BME280;5572;49.540;11.932;2023-03-25T03:33:01;95961.97;;;8.21;100.00
11038;BME280;5572;49.540;11.932;2023-03-25T03:35:36;95971.38;;;8.23;100.00
11038;BME280;5572;49.540;11.932;2023-03-25T03:38:07;95964.91;;;8.24;100.00
11038;BME280;5572;49.540;11.932;2023-03-25T03:40:37;95959.84;;;8.18;100.00
11038;BME280;5572;49.540;11.932;2023-03-25T03:43:08;95964.69;;;8.21;100.00
11038;BME280;5572;49.540;11.932;2023-03-25T03:45:40;95957.91;;;8.23;100.00
11038;BME280;5572;49.540;11.932;2023-03-25T03:48:11;95943.78;;;8.31;100.00
11038;BME280;5572;49.540;11.932;2023-03-25T03:50:44;95937.63;;;8.31;100.00
11038;BME280;5572;49.540;11.932;2023-03-25T03:53:19;95921.75;;;8.29;100.00
11038;BME280;5572;49.540;11.932;2023-03-25T03:55:52;95909.63;;;8.32;100.00
11038;BME280;5572;49.540;11.932;2023-03-25T03:58:25;95889.44;;;8.29;100.00
11038;BME280;5572;49.540;11.932;2023-03-25T04:01:00;95873.28;;;8.29;100.00
11038;BME280;5572;49.540;11.932;2023-03-25T04:03:32;95850.97;;;8.29;100.00
11038;BME280;5572;49.540;11.932;2023-03-25T04:06:07;95859.75;;;8.34;100.00
11038;BME280;5572;49.540;11.932;2023-03-25T04:08:40;95850.81;;;8.39;100.00
11038;BME280;5572;49.540;11.932;2023-03-25T04:11:20;95838.72;;;8.36;100.00
11038;BME280;5572;49.540;11.932;2023-03-25T04:13:51;95819.16;;;8.31;100.00
11038;BME280;5572;49.540;11.932;2023-03-25T04:16:20;95803.38;;;8.24;100.00
11038;BME280;5572;49.540;11.932;2023-03-25T04:18:47;95796.59;;;8.27;100.00
11038;BME280;5572;49.540;11.932;2023-03-25T04:21:18;95792.25;;;8.31;100.00
11038;BME280;5572;49.540;11.932;2023-03-25T04:23:44;95773.91;;;8.33;100.00
11038;BME280;5572;49.540;11.932;2023-03-25T04:26:11;95766.31;;;8.35;100.00
11038;BME280;5572;49.540;11.932;2023-03-25T04:28:39;95762.00;;;8.34;100.00
11038;BME280;5572;49.540;11.932;2023-03-25T04:31:11;95750.56;;;8.28;100.00
11038;BME280;5572;49.540;11.932;2023-03-25T04:33:39;95750.03;;;8.26;100.00
11038;BME280;5572;49.540;11.932;2023-03-25T04:36:07;95727.19;;;8.24;100.00
11038;BME280;5572;49.540;11.932;2023-03-25T04:38:35;95719.72;;;8.21;100.00
11038;BME280;5572;49.540;11.932;2023-03-25T04:41:02;95722.91;;;8.23;100.00
11038;BME280;5572;49.540;11.932;2023-03-25T04:43:31;95709.94;;;8.25;100.00
11038;BME280;5572;49.540;11.932;2023-03-25T04:45:59;95709.47;;;8.23;100.00
11038;BME280;5572;49.540;11.932;2023-03-25T04:48:28;95699.28;;;8.20;100.00
11038;BME280;5572;49.540;11.932;2023-03-25T04:50:56;95697.69;;;8.19;100.00
11038;BME280;5572;49.540;11.932;2023-03-25T04:53:23;95691.50;;;8.18;100.00
11038;BME280;5572;49.540;11.932;2023-03-25T04:55:50;95688.81;;;8.18;100.00
11038;BME280;5572;49.540;11.932;2023-03-25T04:58:16;95679.47;;;8.11;100.00
11038;BME280;5572;49.540;11.932;2023-03-25T05:00:45;95680.06;;;8.08;100.00
11038;BME280;5572;49.540;11.932;2023-03-25T05:03:16;95680.44;;;8.01;100.00
11038;BME280;5572;49.540;11.932;2023-03-25T05:05:42;95680.53;;;7.96;100.00
11038;BME280;5572;49.540;11.932;2023-03-25T05:08:09;95665.06;;;7.88;100.00
11038;BME280;5572;49.540;11.932;2023-03-25T05:10:36;95655.31;;;7.92;100.00
11038;BME280;5572;49.540;11.932;2023-03-25T05:13:05;95662.38;;;7.88;100.00
11038;BME280;5572;49.540;11.932;2023-03-25T05:15:34;95667.16;;;7.91;100.00
11038;BME280;5572;49.540;11.932;2023-03-25T05:18:04;95675.44;;;7.95;100.00
11038;BME280;5572;49.540;11.932;2023-03-25T05:20:32;95684.13;;;7.92;100.00
11038;BME280;5572;49.540;11.932;2023-03-25T05:22:59;95701.41;;;7.86;100.00
11038;BME280;5572;49.540;11.932;2023-03-25T05:25:25;95714.06;;;7.85;100.00
11038;BME280;5572;49.540;11.932;2023-03-25T05:27:53;95724.25;;;7.88;100.00
11038;BME280;5572;49.540;11.932;2023-03-25T05:30:19;95721.84;;;7.87;100.00
11038;BME280;5572;49.540;11.932;2023-03-25T05:32:46;95723.97;;;7.90;100.00
11038;BME280;5572;49.540;11.932;2023-03-25T05:35:15;95717.53;;;7.86;100.00
11038;BME280;5572;49.540;11.932;2023-03-25T05:37:44;95729.34;;;7.90;100.00
11038;BME280;5572;49.540;11.932;2023-03-25T05:40:11;95730.06;;;7.95;100.00
11038;BME280;5572;49.540;11.932;2023-03-25T05:42:37;95737.41;;;8.08;100.00
11038;BME280;5572;49.540;11.932;2023-03-25T05:45:13;95738.34;;;8.17;100.00
11038;BME280;5572;49.540;11.932;2023-03-25T05:47:41;95733.19;;;8.21;100.00
11038;BME280;5572;49.540;11.932;2023-03-25T05:50:09;95747.56;;;8.30;100.00
11038;BME280;5572;49.540;11.932;2023-03-25T05:52:36;95739.69;;;8.33;100.00
11038;BME280;5572;49.540;11.932;2023-03-25T05:55:09;95720.81;;;8.20;100.00
11038;BME280;5572;49.540;11.932;2023-03-25T05:57:37;95703.19;;;8.09;100.00
11038;BME280;5572;49.540;11.932;2023-03-25T06:00:04;95692.22;;;8.05;100.00
11038;BME280;5572;49.540;11.932;2023-03-25T06:02:33;95683.34;;;8.05;100.00
11038;BME280;5572;49.540;11.932;2023-03-25T06:04:59;95698.50;;;8.01;100.00
11038;BME280;5572;49.540;11.932;2023-03-25T06:07:26;95692.66;;;7.94;100.00
11038;BME280;5572;49.540;11.932;2023-03-25T06:09:52;95704.97;;;8.00;100.00
11038;BME280;5572;49.540;11.932;2023-03-25T06:12:22;95701.69;;;8.03;100.00
11038;BME280;5572;49.540;11.932;2023-03-25T06:14:52;95701.03;;;7.92;100.00
11038;BME280;5572;49.540;11.932;2023-03-25T06:17:20;95702.13;;;7.91;100.00
11038;BME280;5572;49.540;11.932;2023-03-25T06:19:47;95704.31;;;7.89;100.00
11038;BME280;5572;49.540;11.932;2023-03-25T06:22:15;95704.53;;;7.93;100.00
11038;BME280;5572;49.540;11.932;2023-03-25T06:24:42;95678.44;;;7.93;100.00
11038;BME280;5572;49.540;11.932;2023-03-25T06:27:12;95674.22;;;7.87;100.00
11038;BME280;5572;49.540;11.932;2023-03-25T06:29:41;95667.16;;;7.91;100.00
11038;BME280;5572;49.540;11.932;2023-03-25T06:32:12;95649.50;;;7.85;100.00
11038;BME280;5572;49.540;11.932;2023-03-25T06:34:56;95635.69;;;7.92;100.00
11038;BME280;5572;49.540;11.932;2023-03-25T06:37:24;95618.81;;;7.86;100.00
11038;BME280;5572;49.540;11.932;2023-03-25T07:27:01;95676.97;;;9.40;100.00
11038;BME280;5572;49.540;11.932;2023-03-25T07:29:28;95679.41;;;9.15;100.00
11038;BME280;5572;49.540;11.932;2023-03-25T07:31:55;95693.97;;;9.27;100.00
11038;BME280;5572;49.540;11.932;2023-03-25T07:34:22;95708.75;;;9.16;100.00
11038;BME280;5572;49.540;11.932;2023-03-25T07:36:49;95702.72;;;9.46;100.00
11038;BME280;5572;49.540;11.932;2023-03-25T07:39:15;95720.50;;;9.47;100.00
11038;BME280;5572;49.540;11.932;2023-03-25T07:41:43;95697.28;;;10.60;100.00
11038;BME280;5572;49.540;11.932;2023-03-25T07:44:12;95730.34;;;9.65;100.00
11038;BME280;5572;49.540;11.932;2023-03-25T07:46:39;95728.91;;;9.45;100.00
11038;BME280;5572;49.540;11.932;2023-03-25T07:49:06;95776.03;;;10.10;100.00
11038;BME280;5572;49.540;11.932;2023-03-25T07:51:33;95773.03;;;9.63;100.00
11038;BME280;5572;49.540;11.932;2023-03-25T07:53:59;95797.13;;;9.19;100.00
11038;BME280;5572;49.540;11.932;2023-03-25T07:56:26;95811.75;;;9.00;100.00
11038;BME280;5572;49.540;11.932;2023-03-25T07:58:52;95823.72;;;8.80;100.00
11038;BME280;5572;49.540;11.932;2023-03-25T08:01:21;95810.59;;;9.06;100.00
11038;BME280;5572;49.540;11.932;2023-03-25T08:03:47;95828.84;;;9.09;100.00
11038;BME280;5572;49.540;11.932;2023-03-25T08:06:14;95813.41;;;9.54;100.00
11038;BME280;5572;49.540;11.932;2023-03-25T08:08:40;95824.78;;;9.65;100.00
11038;BME280;5572;49.540;11.932;2023-03-25T08:11:07;95840.06;;;9.42;100.00
11038;BME280;5572;49.540;11.932;2023-03-25T08:13:35;95833.16;;;9.77;100.00
11038;BME280;5572;49.540;11.932;2023-03-25T08:16:02;95832.59;;;10.28;100.00
11038;BME280;5572;49.540;11.932;2023-03-25T08:18:30;95846.41;;;10.27;100.00
11038;BME280;5572;49.540;11.932;2023-03-25T08:20:56;95880.97;;;9.63;100.00
11038;BME280;5572;49.540;11.932;2023-03-25T08:23:23;95877.75;;;9.47;100.00
11038;BME280;5572;49.540;11.932;2023-03-25T08:25:50;95890.13;;;9.48;100.00
11038;BME280;5572;49.540;11.932;2023-03-25T08:28:18;95904.41;;;9.36;100.00
11038;BME280;5572;49.540;11.932;2023-03-25T08:30:47;95912.94;;;9.11;100.00
11038;BME280;5572;49.540;11.932;2023-03-25T08:33:14;95905.72;;;9.78;100.00
11038;BME280;5572;49.540;11.932;2023-03-25T08:35:51;95908.13;;;10.20;100.00
11038;BME280;5572;49.540;11.932;2023-03-25T08:38:20;95917.03;;;9.80;100.00
11038;BME280;5572;49.540;11.932;2023-03-25T08:40:49;95934.44;;;10.15;100.00
11038;BME280;5572;49.540;11.932;2023-03-25T08:43:16;95919.06;;;10.02;100.00
11038;BME280;5572;49.540;11.932;2023-03-25T08:45:57;95935.63;;;9.95;100.00
11038;BME280;5572;49.540;11.932;2023-03-25T08:48:25;95962.00;;;9.71;100.00
11038;BME280;5572;49.540;11.932;2023-03-25T08:51:01;95958.50;;;9.71;100.00
11038;BME280;5572;49.540;11.932;2023-03-25T08:53:27;95975.69;;;9.75;100.00
11038;BME280;5572;49.540;11.932;2023-03-25T08:55:57;95975.69;;;9.88;100.00
11038;BME280;5572;49.540;11.932;2023-03-25T08:58:24;95978.41;;;9.75;100.00
11038;BME280;5572;49.540;11.932;2023-03-25T09:00:53;95989.91;;;9.80;100.00
11038;BME280;5572;49.540;11.932;2023-03-25T09:03:20;96005.72;;;9.87;100.00
11038;BME280;5572;49.540;11.932;2023-03-25T09:05:47;96021.59;;;9.88;100.00
11038;BME280;5572;49.540;11.932;2023-03-25T09:08:15;95999.69;;;9.76;100.00
11038;BME280;5572;49.540;11.932;2023-03-25T09:10:42;96018.59;;;9.76;100.00
11038;BME280;5572;49.540;11.932;2023-03-25T09:13:08;96017.31;;;9.87;100.00
11038;BME280;5572;49.540;11.932;2023-03-25T09:15:35;96025.66;;;10.18;100.00
11038;BME280;5572;49.540;11.932;2023-03-25T09:18:04;96023.56;;;10.15;100.00
11038;BME280;5572;49.540;11.932;2023-03-25T09:20:31;95995.44;;;10.29;100.00
11038;BME280;5572;49.540;11.932;2023-03-25T09:22:58;96005.66;;;10.32;100.00
11038;BME280;5572;49.540;11.932;2023-03-25T09:25:26;95989.44;;;10.45;100.00
11038;BME280;5572;49.540;11.932;2023-03-25T09:27:59;95959.91;;;10.84;100.00
11038;BME280;5572;49.540;11.932;2023-03-25T09:30:28;95947.44;;;11.10;100.00
11038;BME280;5572;49.540;11.932;2023-03-25T09:32:56;95902.00;;;11.81;100.00
11038;BME280;5572;49.540;11.932;2023-03-25T09:35:34;95912.63;;;11.69;100.00
11038;BME280;5572;49.540;11.932;2023-03-25T09:38:01;95921.97;;;10.89;100.00
11038;BME280;5572;49.540;11.932;2023-03-25T09:40:36;95942.41;;;10.82;100.00
11038;BME280;5572;49.540;11.932;2023-03-25T09:43:24;95967.81;;;10.94;100.00
11038;BME280;5572;49.540;11.932;2023-03-25T09:45:55;95994.06;;;10.94;100.00
11038;BME280;5572;49.540;11.932;2023-03-25T09:48:26;95976.94;;;11.20;100.00
11038;BME280;5572;49.540;11.932;2023-03-25T09:50:59;95978.16;;;11.14;100.00
11038;BME280;5572;49.540;11.932;2023-03-25T09:53:31;95965.09;;;10.94;100.00
11038;BME280;5572;49.540;11.932;2023-03-25T09:56:02;95951.56;;;11.82;100.00
11038;BME280;5572;49.540;11.932;2023-03-25T09:58:34;95925.38;;;11.69;100.00
11038;BME280;5572;49.540;11.932;2023-03-25T10:01:11;95919.47;;;11.97;100.00
11038;BME280;5572;49.540;11.932;2023-03-25T10:03:53;95908.13;;;12.03;100.00
11038;BME280;5572;49.540;11.932;2023-03-25T10:06:21;95855.94;;;12.45;100.00
11038;BME280;5572;49.540;11.932;2023-03-25T10:09:00;95857.16;;;11.97;100.00
11038;BME280;5572;49.540;11.932;2023-03-25T10:11:36;95838.09;;;12.36;100.00
11038;BME280;5572;49.540;11.932;2023-03-25T10:14:09;95815.94;;;12.42;100.00
11038;BME280;5572;49.540;11.932;2023-03-25T10:16:46;95828.69;;;12.25;100.00
11038;BME280;5572;49.540;11.932;2023-03-25T10:19:28;95870.63;;;11.80;100.00
11038;BME280;5572;49.540;11.932;2023-03-25T10:21:57;95870.94;;;11.48;100.00
11038;BME280;5572;49.540;11.932;2023-03-25T10:24:30;95886.16;;;11.36;100.00
11038;BME280;5572;49.540;11.932;2023-03-25T10:26:59;95893.50;;;11.35;100.00
11038;BME280;5572;49.540;11.932;2023-03-25T10:29:33;95900.44;;;12.44;100.00
11038;BME280;5572;49.540;11.932;2023-03-25T10:32:05;95841.50;;;11.77;100.00
11038;BME280;5572;49.540;11.932;2023-03-25T10:34:36;95786.59;;;12.27;100.00
11038;BME280;5572;49.540;11.932;2023-03-25T10:37:05;95808.50;;;11.75;100.00
11038;BME280;5572;49.540;11.932;2023-03-25T10:39:40;95854.78;;;11.35;100.00
11038;BME280;5572;49.540;11.932;2023-03-25T10:42:16;95841.59;;;11.33;100.00
11038;BME280;5572;49.540;11.932;2023-03-25T10:44:45;95880.00;;;11.44;100.00
11038;BME280;5572;49.540;11.932;2023-03-25T10:47:15;95852.28;;;12.33;100.00
11038;BME280;5572;49.540;11.932;2023-03-25T10:49:42;95817.50;;;12.09;100.00
11038;BME280;5572;49.540;11.932;2023-03-25T10:52:11;95829.31;;;12.39;100.00
11038;BME280;5572;49.540;11.932;2023-03-25T10:54:38;95830.66;;;11.77;100.00
11038;BME280;5572;49.540;11.932;2023-03-25T10:57:08;95849.53;;;12.24;100.00
11038;BME280;5572;49.540;11.932;2023-03-25T10:59:40;95862.50;;;12.78;100.00
11038;BME280;5572;49.540;11.932;2023-03-25T11:02:11;95861.38;;;12.37;100.00
11038;BME280;5572;49.540;11.932;2023-03-25T11:04:51;95874.59;;;12.38;100.00
11038;BME280;5572;49.540;11.932;2023-03-25T11:07:21;95882.22;;;12.19;100.00
11038;BME280;5572;49.540;11.932;2023-03-25T11:09:48;95923.56;;;11.86;100.00
11038;BME280;5572;49.540;11.932;2023-03-25T11:12:17;95918.69;;;11.66;100.00
11038;BME280;5572;49.540;11.932;2023-03-25T11:14:53;95913.44;;;12.08;100.00
11038;BME280;5572;49.540;11.932;2023-03-25T11:17:20;95931.97;;;11.85;100.00
11038;BME280;5572;49.540;11.932;2023-03-25T11:19:52;95869.38;;;12.92;100.00
11038;BME280;5572;49.540;11.932;2023-03-25T11:22:21;95853.25;;;12.79;100.00
11038;BME280;5572;49.540;11.932;2023-03-25T11:24:51;95829.66;;;12.46;100.00
11038;BME280;5572;49.540;11.932;2023-03-25T11:27:18;95850.84;;;12.27;100.00
11038;BME280;5572;49.540;11.932;2023-03-25T11:29:54;95872.47;;;12.02;100.00
11038;BME280;5572;49.540;11.932;2023-03-25T11:32:22;95871.28;;;11.86;100.00
11038;BME280;5572;49.540;11.932;2023-03-25T11:34:49;95912.22;;;11.84;100.00
11038;BME280;5572;49.540;11.932;2023-03-25T11:37:18;95921.94;;;11.55;100.00
11038;BME280;5572;49.540;11.932;2023-03-25T11:39:54;95949.75;;;11.69;100.00
11038;BME280;5572;49.540;11.932;2023-03-25T11:42:29;95967.16;;;11.85;100.00
11038;BME280;5572;49.540;11.932;2023-03-25T11:44:58;96017.88;;;11.49;100.00
11038;BME280;5572;49.540;11.932;2023-03-25T11:47:31;96058.66;;;11.30;100.00
11038;BME280;5572;49.540;11.932;2023-03-25T11:49:58;96044.75;;;10.88;100.00
11038;BME280;5572;49.540;11.932;2023-03-25T11:52:26;96077.47;;;11.00;100.00
11038;BME280;5572;49.540;11.932;2023-03-25T11:54:57;96066.28;;;10.80;100.00
11038;BME280;5572;49.540;11.932;2023-03-25T11:57:27;96080.66;;;10.89;100.00
11038;BME280;5572;49.540;11.932;2023-03-25T12:00:04;96093.50;;;10.56;100.00
11038;BME280;5572;49.540;11.932;2023-03-25T12:02:37;96085.91;;;10.45;100.00
11038;BME280;5572;49.540;11.932;2023-03-25T12:05:11;96113.84;;;10.40;100.00
11038;BME280;5572;49.540;11.932;2023-03-25T12:07:42;96124.31;;;10.28;100.00
11038;BME280;5572;49.540;11.932;2023-03-25T12:10:16;96172.38;;;9.63;100.00
11038;BME280;5572;49.540;11.932;2023-03-25T12:12:50;96228.88;;;8.89;100.00
11038;BME280;5572;49.540;11.932;2023-03-25T12:15:26;96278.88;;;8.15;100.00
11038;BME280;5572;49.540;11.932;2023-03-25T12:21:30;96310.84;;;7.20;100.00
11038;BME280;5572;49.540;11.932;2023-03-25T12:24:08;96290.09;;;7.31;100.00
11038;BME280;5572;49.540;11.932;2023-03-25T12:26:44;96263.00;;;7.22;100.00
11038;BME280;5572;49.540;11.932;2023-03-25T12:29:33;96243.56;;;7.35;100.00
11038;BME280;5572;49.540;11.932;2023-03-25T12:32:12;96196.00;;;8.41;100.00
11038;BME280;5572;49.540;11.932;2023-03-25T12:34:51;96149.50;;;9.19;100.00
11038;BME280;5572;49.540;11.932;2023-03-25T12:37:28;96143.22;;;9.46;100.00
11038;BME280;5572;49.540;11.932;2023-03-25T12:40:19;96137.34;;;10.08;100.00
11038;BME280;5572;49.540;11.932;2023-03-25T12:42:56;96122.72;;;10.27;100.00
11038;BME280;5572;49.540;11.932;2023-03-25T12:45:42;96119.28;;;9.90;100.00
11038;BME280;5572;49.540;11.932;2023-03-25T12:48:24;96073.88;;;10.64;100.00
11038;BME280;5572;49.540;11.932;2023-03-25T12:50:59;96072.00;;;10.51;100.00
11038;BME280;5572;49.540;11.932;2023-03-25T12:53:40;96047.97;;;10.63;100.00
11038;BME280;5572;49.540;11.932;2023-03-25T12:59:17;95994.69;;;11.13;100.00
11038;BME280;5572;49.540;11.932;2023-03-25T13:01:52;95971.91;;;10.56;100.00
11038;BME280;5572;49.540;11.932;2023-03-25T13:04:37;95999.16;;;10.33;100.00
11038;BME280;5572;49.540;11.932;2023-03-25T13:07:10;96008.53;;;9.95;100.00
11038;BME280;5572;49.540;11.932;2023-03-25T13:09:45;95981.53;;;9.95;100.00
11038;BME280;5572;49.540;11.932;2023-03-25T13:12:26;95933.63;;;10.41;100.00
11038;BME280;5572;49.540;11.932;2023-03-25T13:14:59;95939.44;;;10.21;100.00
11038;BME280;5572;49.540;11.932;2023-03-25T13:17:30;95907.16;;;10.16;100.00
11038;BME280;5572;49.540;11.932;2023-03-25T13:20:02;95879.91;;;10.39;100.00
11038;BME280;5572;49.540;11.932;2023-03-25T13:22:33;95857.91;;;10.32;100.00
11038;BME280;5572;49.540;11.932;2023-03-25T13:25:03;95846.13;;;10.50;100.00
11038;BME280;5572;49.540;11.932;2023-03-25T13:27:34;95816.56;;;11.28;100.00
11038;BME280;5572;49.540;11.932;2023-03-25T13:30:12;95812.09;;;10.93;100.00
11038;BME280;5572;49.540;11.932;2023-03-25T13:32:43;95809.03;;;10.64;100.00
11038;BME280;5572;49.540;11.932;2023-03-25T13:35:19;95815.38;;;10.38;100.00
11038;BME280;5572;49.540;11.932;2023-03-25T13:37:50;95803.84;;;10.46;100.00
11038;BME280;5572;49.540;11.932;2023-03-25T13:40:25;95801.56;;;10.39;100.00
11038;BME280;5572;49.540;11.932;2023-03-25T13:42:57;95805.63;;;10.15;100.00
11038;BME280;5572;49.540;11.932;2023-03-25T13:45:24;95817.44;;;10.06;100.00
11038;BME280;5572;49.540;11.932;2023-03-25T13:48:04;95827.06;;;9.71;100.00
11038;BME280;5572;49.540;11.932;2023-03-25T13:50:33;95795.63;;;9.27;100.00
11038;BME280;5572;49.540;11.932;2023-03-25T13:53:04;95809.47;;;8.93;100.00
11038;BME280;5572;49.540;11.932;2023-03-25T13:55:34;95793.34;;;8.61;100.00
11038;BME280;5572;49.540;11.932;2023-03-25T13:58:17;95777.63;;;8.18;100.00
11038;BME280;5572;49.540;11.932;2023-03-25T14:13:25;95803.41;;;6.71;100.00
11038;BME280;5572;49.540;11.932;2023-03-25T14:15:58;95777.63;;;7.21;100.00
11038;BME280;5572;49.540;11.932;2023-03-25T14:18:26;95821.63;;;7.02;100.00
11038;BME280;5572;49.540;11.932;2023-03-25T14:21:11;95829.28;;;6.62;100.00
11038;BME280;5572;49.540;11.932;2023-03-25T14:23:41;95821.41;;;6.70;100.00
11038;BME280;5572;49.540;11.932;2023-03-25T14:47:28;95639.69;;;8.93;100.00
11038;BME280;5572;49.540;11.932;2023-03-25T14:50:01;95655.06;;;8.93;100.00